sensor_id;sensor_type;location;lat;lon;timestamp;P1;durP1;ratioP1;P2;durP2;ratioP2
19907;SDS011;10116;53.112;7.356;2023-03-05T00:02:22;0.90;;;0.60;;
19907;SDS011;10116;53.112;7.356;2023-03-05T00:04:47;1.07;;;0.77;;
19907;SDS011;10116;53.112;7.356;2023-03-05T00:07:13;0.50;;;0.50;;
19907;SDS011;10116;53.112;7.356;2023-03-05T00:09:39;0.77;;;0.63;;
19907;SDS011;10116;53.112;7.356;2023-03-05T00:12:05;1.03;;;0.70;;
19907;SDS011;10116;53.112;7.356;2023-03-05T00:14:30;0.70;;;0.70;;
19907;SDS011;10116;53.112;7.356;2023-03-05T00:16:56;0.80;;;0.80;;
19907;SDS011;10116;53.112;7.356;2023-03-05T00:19:22;0.97;;;0.73;;
19907;SDS011;10116;53.112;7.356;2023-03-05T00:21:47;1.27;;;0.90;;
19907;SDS011;10116;53.112;7.356;2023-03-05T00:24:14;1.23;;;1.13;;
19907;SDS011;10116;53.112;7.356;2023-03-05T00:26:42;0.77;;;0.77;;
19907;SDS011;10116;53.112;7.356;2023-03-05T00:29:09;1.07;;;0.80;;
19907;SDS011;10116;53.112;7.356;2023-03-05T00:31:38;0.97;;;0.60;;
19907;SDS011;10116;53.112;7.356;2023-03-05T00:34:06;0.83;;;0.67;;
19907;SDS011;10116;53.112;7.356;2023-03-05T00:36:33;0.80;;;0.70;;
19907;SDS011;10116;53.112;7.356;2023-03-05T00:39:02;0.77;;;0.70;;
19907;SDS011;10116;53.112;7.356;2023-03-05T00:41:28;0.77;;;0.70;;
19907;SDS011;10116;53.112;7.356;2023-03-05T00:43:54;0.60;;;0.60;;
19907;SDS011;10116;53.112;7.356;2023-03-05T00:46:20;1.33;;;0.80;;
19907;SDS011;10116;53.112;7.356;2023-03-05T00:48:46;1.50;;;0.90;;
19907;SDS011;10116;53.112;7.356;2023-03-05T00:51:12;0.70;;;0.60;;
19907;SDS011;10116;53.112;7.356;2023-03-05T00:53:38;2.20;;;0.80;;
19907;SDS011;10116;53.112;7.356;2023-03-05T00:56:04;0.63;;;0.63;;
19907;SDS011;10116;53.112;7.356;2023-03-05T00:58:30;0.70;;;0.57;;
19907;SDS011;10116;53.112;7.356;2023-03-05T01:00:56;1.60;;;0.60;;
19907;SDS011;10116;53.112;7.356;2023-03-05T01:03:23;0.80;;;0.80;;
19907;SDS011;10116;53.112;7.356;2023-03-05T01:05:48;1.20;;;1.00;;
19907;SDS011;10116;53.112;7.356;2023-03-05T01:08:14;0.60;;;0.60;;
19907;SDS011;10116;53.112;7.356;2023-03-05T01:10:40;1.67;;;0.57;;
19907;SDS011;10116;53.112;7.356;2023-03-05T01:13:06;0.60;;;0.60;;
19907;SDS011;10116;53.112;7.356;2023-03-05T01:15:32;1.00;;;0.80;;
19907;SDS011;10116;53.112;7.356;2023-03-05T01:17:58;0.83;;;0.73;;
19907;SDS011;10116;53.112;7.356;2023-03-05T01:20:23;0.57;;;0.57;;
19907;SDS011;10116;53.112;7.356;2023-03-05T01:22:49;1.27;;;0.60;;
19907;SDS011;10116;53.112;7.356;2023-03-05T01:25:15;1.77;;;1.07;;
19907;SDS011;10116;53.112;7.356;2023-03-05T01:27:41;0.80;;;0.80;;
19907;SDS011;10116;53.112;7.356;2023-03-05T01:30:07;0.90;;;0.70;;
19907;SDS011;10116;53.112;7.356;2023-03-05T01:32:34;1.53;;;0.80;;
19907;SDS011;10116;53.112;7.356;2023-03-05T01:35:00;1.27;;;0.70;;
19907;SDS011;10116;53.112;7.356;2023-03-05T01:37:27;0.60;;;0.60;;
19907;SDS011;10116;53.112;7.356;2023-03-05T01:39:53;1.70;;;0.50;;
19907;SDS011;10116;53.112;7.356;2023-03-05T01:42:19;1.43;;;0.70;;
19907;SDS011;10116;53.112;7.356;2023-03-05T01:47:31;1.00;;;0.67;;
19907;SDS011;10116;53.112;7.356;2023-03-05T01:50:00;2.20;;;0.93;;
19907;SDS011;10116;53.112;7.356;2023-03-05T01:52:26;0.90;;;0.60;;
19907;SDS011;10116;53.112;7.356;2023-03-05T01:54:56;0.67;;;0.67;;
19907;SDS011;10116;53.112;7.356;2023-03-05T01:57:32;1.13;;;0.80;;
19907;SDS011;10116;53.112;7.356;2023-03-05T02:00:05;0.70;;;0.50;;
19907;SDS011;10116;53.112;7.356;2023-03-05T02:02:35;1.20;;;0.70;;
19907;SDS011;10116;53.112;7.356;2023-03-05T02:05:06;1.23;;;0.70;;
19907;SDS011;10116;53.112;7.356;2023-03-05T02:07:35;1.00;;;0.80;;
19907;SDS011;10116;53.112;7.356;2023-03-05T02:10:20;0.50;;;0.50;;
19907;SDS011;10116;53.112;7.356;2023-03-05T02:12:48;1.03;;;0.60;;
19907;SDS011;10116;53.112;7.356;2023-03-05T02:15:16;1.63;;;0.60;;
19907;SDS011;10116;53.112;7.356;2023-03-05T02:17:42;1.47;;;0.60;;
19907;SDS011;10116;53.112;7.356;2023-03-05T02:20:09;0.67;;;0.60;;
19907;SDS011;10116;53.112;7.356;2023-03-05T02:22:42;0.87;;;0.80;;
19907;SDS011;10116;53.112;7.356;2023-03-05T02:25:15;1.60;;;0.87;;
19907;SDS011;10116;53.112;7.356;2023-03-05T02:27:50;0.70;;;0.70;;
19907;SDS011;10116;53.112;7.356;2023-03-05T02:30:28;0.60;;;0.50;;
19907;SDS011;10116;53.112;7.356;2023-03-05T02:32:55;0.70;;;0.60;;
19907;SDS011;10116;53.112;7.356;2023-03-05T02:35:21;0.70;;;0.70;;
19907;SDS011;10116;53.112;7.356;2023-03-05T02:37:46;0.60;;;0.60;;
19907;SDS011;10116;53.112;7.356;2023-03-05T02:40:12;1.13;;;0.80;;
19907;SDS011;10116;53.112;7.356;2023-03-05T02:42:38;2.00;;;0.70;;
19907;SDS011;10116;53.112;7.356;2023-03-05T02:45:04;0.70;;;0.50;;
19907;SDS011;10116;53.112;7.356;2023-03-05T02:47:30;0.57;;;0.57;;
19907;SDS011;10116;53.112;7.356;2023-03-05T02:49:56;0.60;;;0.60;;
19907;SDS011;10116;53.112;7.356;2023-03-05T02:52:22;1.27;;;0.67;;
19907;SDS011;10116;53.112;7.356;2023-03-05T02:54:48;0.70;;;0.60;;
19907;SDS011;10116;53.112;7.356;2023-03-05T02:57:14;0.70;;;0.60;;
19907;SDS011;10116;53.112;7.356;2023-03-05T02:59:40;0.93;;;0.67;;
19907;SDS011;10116;53.112;7.356;2023-03-05T03:02:06;1.00;;;0.70;;
19907;SDS011;10116;53.112;7.356;2023-03-05T03:04:31;0.80;;;0.70;;
19907;SDS011;10116;53.112;7.356;2023-03-05T03:06:57;2.37;;;0.67;;
19907;SDS011;10116;53.112;7.356;2023-03-05T03:09:23;0.67;;;0.67;;
19907;SDS011;10116;53.112;7.356;2023-03-05T03:11:48;1.87;;;0.70;;
19907;SDS011;10116;53.112;7.356;2023-03-05T03:14:14;1.00;;;0.73;;
19907;SDS011;10116;53.112;7.356;2023-03-05T03:16:39;0.70;;;0.70;;
19907;SDS011;10116;53.112;7.356;2023-03-05T03:19:05;0.97;;;0.50;;
19907;SDS011;10116;53.112;7.356;2023-03-05T03:21:30;0.93;;;0.60;;
19907;SDS011;10116;53.112;7.356;2023-03-05T03:23:56;1.93;;;0.63;;
19907;SDS011;10116;53.112;7.356;2023-03-05T03:26:22;1.13;;;0.70;;
19907;SDS011;10116;53.112;7.356;2023-03-05T03:28:48;0.70;;;0.60;;
19907;SDS011;10116;53.112;7.356;2023-03-05T03:31:14;0.50;;;0.40;;
19907;SDS011;10116;53.112;7.356;2023-03-05T03:33:40;1.57;;;0.90;;
19907;SDS011;10116;53.112;7.356;2023-03-05T03:36:06;0.70;;;0.50;;
19907;SDS011;10116;53.112;7.356;2023-03-05T03:38:32;1.47;;;0.80;;
19907;SDS011;10116;53.112;7.356;2023-03-05T03:40:57;0.97;;;0.60;;
19907;SDS011;10116;53.112;7.356;2023-03-05T03:43:23;0.63;;;0.50;;
19907;SDS011;10116;53.112;7.356;2023-03-05T03:45:49;0.60;;;0.60;;
19907;SDS011;10116;53.112;7.356;2023-03-05T03:48:14;1.00;;;0.60;;
19907;SDS011;10116;53.112;7.356;2023-03-05T03:50:40;0.60;;;0.50;;
19907;SDS011;10116;53.112;7.356;2023-03-05T03:53:07;0.50;;;0.50;;
19907;SDS011;10116;53.112;7.356;2023-03-05T03:55:33;0.83;;;0.80;;
19907;SDS011;10116;53.112;7.356;2023-03-05T03:57:59;0.50;;;0.50;;
19907;SDS011;10116;53.112;7.356;2023-03-05T04:00:25;0.40;;;0.40;;
19907;SDS011;10116;53.112;7.356;2023-03-05T04:02:51;0.83;;;0.67;;
19907;SDS011;10116;53.112;7.356;2023-03-05T04:05:16;0.60;;;0.50;;
19907;SDS011;10116;53.112;7.356;2023-03-05T04:07:42;1.10;;;0.77;;
19907;SDS011;10116;53.112;7.356;2023-03-05T04:10:09;0.50;;;0.50;;
19907;SDS011;10116;53.112;7.356;2023-03-05T04:12:38;1.60;;;0.73;;
19907;SDS011;10116;53.112;7.356;2023-03-05T04:15:07;0.87;;;0.60;;
19907;SDS011;10116;53.112;7.356;2023-03-05T04:17:33;0.50;;;0.43;;
19907;SDS011;10116;53.112;7.356;2023-03-05T04:19:59;0.60;;;0.50;;
19907;SDS011;10116;53.112;7.356;2023-03-05T04:22:24;0.50;;;0.50;;
19907;SDS011;10116;53.112;7.356;2023-03-05T04:24:50;0.60;;;0.50;;
19907;SDS011;10116;53.112;7.356;2023-03-05T04:27:15;0.67;;;0.50;;
19907;SDS011;10116;53.112;7.356;2023-03-05T04:29:41;1.07;;;0.40;;
19907;SDS011;10116;53.112;7.356;2023-03-05T04:32:07;0.60;;;0.50;;
19907;SDS011;10116;53.112;7.356;2023-03-05T04:34:32;1.07;;;0.73;;
19907;SDS011;10116;53.112;7.356;2023-03-05T04:36:59;0.50;;;0.40;;
19907;SDS011;10116;53.112;7.356;2023-03-05T04:39:25;0.73;;;0.70;;
19907;SDS011;10116;53.112;7.356;2023-03-05T04:41:50;0.60;;;0.50;;
19907;SDS011;10116;53.112;7.356;2023-03-05T04:44:16;0.60;;;0.40;;
19907;SDS011;10116;53.112;7.356;2023-03-05T04:46:42;0.53;;;0.53;;
19907;SDS011;10116;53.112;7.356;2023-03-05T04:49:08;0.60;;;0.50;;
19907;SDS011;10116;53.112;7.356;2023-03-05T04:51:33;0.80;;;0.50;;
19907;SDS011;10116;53.112;7.356;2023-03-05T04:53:59;1.33;;;0.67;;
19907;SDS011;10116;53.112;7.356;2023-03-05T04:56:24;0.50;;;0.50;;
19907;SDS011;10116;53.112;7.356;2023-03-05T04:58:50;1.00;;;0.50;;
19907;SDS011;10116;53.112;7.356;2023-03-05T05:01:16;0.80;;;0.60;;
19907;SDS011;10116;53.112;7.356;2023-03-05T05:03:42;0.50;;;0.50;;
19907;SDS011;10116;53.112;7.356;2023-03-05T05:06:07;0.70;;;0.50;;
19907;SDS011;10116;53.112;7.356;2023-03-05T05:08:33;0.50;;;0.40;;
19907;SDS011;10116;53.112;7.356;2023-03-05T05:11:00;0.50;;;0.50;;
19907;SDS011;10116;53.112;7.356;2023-03-05T05:13:28;0.50;;;0.40;;
19907;SDS011;10116;53.112;7.356;2023-03-05T05:15:54;1.10;;;0.63;;
19907;SDS011;10116;53.112;7.356;2023-03-05T05:18:19;0.80;;;0.43;;
19907;SDS011;10116;53.112;7.356;2023-03-05T05:20:45;0.50;;;0.43;;
19907;SDS011;10116;53.112;7.356;2023-03-05T05:23:11;0.40;;;0.37;;
19907;SDS011;10116;53.112;7.356;2023-03-05T05:25:37;0.50;;;0.40;;
19907;SDS011;10116;53.112;7.356;2023-03-05T05:28:03;0.70;;;0.53;;
19907;SDS011;10116;53.112;7.356;2023-03-05T05:30:28;0.50;;;0.40;;
19907;SDS011;10116;53.112;7.356;2023-03-05T05:32:54;1.43;;;0.63;;
19907;SDS011;10116;53.112;7.356;2023-03-05T05:35:19;0.60;;;0.50;;
19907;SDS011;10116;53.112;7.356;2023-03-05T05:37:45;0.60;;;0.60;;
19907;SDS011;10116;53.112;7.356;2023-03-05T05:40:11;0.50;;;0.40;;
19907;SDS011;10116;53.112;7.356;2023-03-05T05:42:36;0.60;;;0.60;;
19907;SDS011;10116;53.112;7.356;2023-03-05T05:45:02;0.60;;;0.40;;
19907;SDS011;10116;53.112;7.356;2023-03-05T05:47:28;0.50;;;0.50;;
19907;SDS011;10116;53.112;7.356;2023-03-05T05:49:54;0.57;;;0.43;;
19907;SDS011;10116;53.112;7.356;2023-03-05T05:52:20;0.53;;;0.47;;
19907;SDS011;10116;53.112;7.356;2023-03-05T05:54:46;0.40;;;0.40;;
19907;SDS011;10116;53.112;7.356;2023-03-05T05:57:12;0.50;;;0.47;;
19907;SDS011;10116;53.112;7.356;2023-03-05T05:59:39;0.60;;;0.50;;
19907;SDS011;10116;53.112;7.356;2023-03-05T06:02:04;0.70;;;0.70;;
19907;SDS011;10116;53.112;7.356;2023-03-05T06:04:32;0.50;;;0.50;;
19907;SDS011;10116;53.112;7.356;2023-03-05T06:06:58;0.77;;;0.50;;
19907;SDS011;10116;53.112;7.356;2023-03-05T06:09:24;0.50;;;0.43;;
19907;SDS011;10116;53.112;7.356;2023-03-05T06:11:50;0.57;;;0.40;;
19907;SDS011;10116;53.112;7.356;2023-03-05T06:14:16;0.80;;;0.60;;
19907;SDS011;10116;53.112;7.356;2023-03-05T06:16:41;0.50;;;0.47;;
19907;SDS011;10116;53.112;7.356;2023-03-05T06:19:07;0.53;;;0.53;;
19907;SDS011;10116;53.112;7.356;2023-03-05T06:21:37;1.07;;;0.30;;
19907;SDS011;10116;53.112;7.356;2023-03-05T06:24:03;0.60;;;0.40;;
19907;SDS011;10116;53.112;7.356;2023-03-05T06:26:29;0.93;;;0.50;;
19907;SDS011;10116;53.112;7.356;2023-03-05T06:28:55;1.00;;;0.50;;
19907;SDS011;10116;53.112;7.356;2023-03-05T06:31:22;1.53;;;0.73;;
19907;SDS011;10116;53.112;7.356;2023-03-05T06:33:49;1.67;;;0.57;;
19907;SDS011;10116;53.112;7.356;2023-03-05T06:36:16;2.83;;;0.80;;
19907;SDS011;10116;53.112;7.356;2023-03-05T06:38:43;1.53;;;0.80;;
19907;SDS011;10116;53.112;7.356;2023-03-05T06:41:11;1.13;;;0.50;;
19907;SDS011;10116;53.112;7.356;2023-03-05T06:43:39;2.43;;;0.57;;
19907;SDS011;10116;53.112;7.356;2023-03-05T06:46:07;1.13;;;0.87;;
19907;SDS011;10116;53.112;7.356;2023-03-05T06:48:40;1.73;;;0.70;;
19907;SDS011;10116;53.112;7.356;2023-03-05T06:51:17;0.80;;;0.70;;
19907;SDS011;10116;53.112;7.356;2023-03-05T06:53:44;1.10;;;0.70;;
19907;SDS011;10116;53.112;7.356;2023-03-05T06:56:11;1.83;;;0.87;;
19907;SDS011;10116;53.112;7.356;2023-03-05T06:58:38;0.90;;;0.60;;
19907;SDS011;10116;53.112;7.356;2023-03-05T07:01:05;2.80;;;0.80;;
19907;SDS011;10116;53.112;7.356;2023-03-05T07:03:31;3.20;;;0.83;;
19907;SDS011;10116;53.112;7.356;2023-03-05T07:05:58;4.13;;;1.07;;
19907;SDS011;10116;53.112;7.356;2023-03-05T07:08:25;0.90;;;0.70;;
19907;SDS011;10116;53.112;7.356;2023-03-05T07:10:51;1.07;;;0.80;;
19907;SDS011;10116;53.112;7.356;2023-03-05T07:13:17;5.13;;;0.93;;
19907;SDS011;10116;53.112;7.356;2023-03-05T07:15:42;1.77;;;0.63;;
19907;SDS011;10116;53.112;7.356;2023-03-05T07:18:08;1.00;;;0.73;;
19907;SDS011;10116;53.112;7.356;2023-03-05T07:20:34;2.77;;;0.70;;
19907;SDS011;10116;53.112;7.356;2023-03-05T07:23:00;1.23;;;0.70;;
19907;SDS011;10116;53.112;7.356;2023-03-05T07:25:26;1.50;;;0.53;;
19907;SDS011;10116;53.112;7.356;2023-03-05T07:27:51;0.90;;;0.80;;
19907;SDS011;10116;53.112;7.356;2023-03-05T07:30:17;0.60;;;0.50;;
19907;SDS011;10116;53.112;7.356;2023-03-05T07:32:43;6.23;;;0.77;;
19907;SDS011;10116;53.112;7.356;2023-03-05T07:35:08;0.90;;;0.80;;
19907;SDS011;10116;53.112;7.356;2023-03-05T07:37:34;3.33;;;0.70;;
19907;SDS011;10116;53.112;7.356;2023-03-05T07:40:00;1.27;;;0.80;;
19907;SDS011;10116;53.112;7.356;2023-03-05T07:42:25;0.77;;;0.60;;
19907;SDS011;10116;53.112;7.356;2023-03-05T07:44:51;2.23;;;0.93;;
19907;SDS011;10116;53.112;7.356;2023-03-05T07:47:16;4.60;;;1.53;;
19907;SDS011;10116;53.112;7.356;2023-03-05T07:49:42;1.37;;;0.67;;
19907;SDS011;10116;53.112;7.356;2023-03-05T07:52:08;10.03;;;1.07;;
19907;SDS011;10116;53.112;7.356;2023-03-05T07:54:34;5.07;;;1.00;;
19907;SDS011;10116;53.112;7.356;2023-03-05T07:57:05;7.00;;;0.77;;
19907;SDS011;10116;53.112;7.356;2023-03-05T07:59:32;3.53;;;1.30;;
19907;SDS011;10116;53.112;7.356;2023-03-05T08:01:58;7.10;;;0.90;;
19907;SDS011;10116;53.112;7.356;2023-03-05T08:04:24;1.70;;;0.90;;
19907;SDS011;10116;53.112;7.356;2023-03-05T08:06:50;3.57;;;1.27;;
19907;SDS011;10116;53.112;7.356;2023-03-05T08:09:16;1.90;;;1.00;;
19907;SDS011;10116;53.112;7.356;2023-03-05T08:11:42;4.60;;;1.10;;
19907;SDS011;10116;53.112;7.356;2023-03-05T08:14:09;4.30;;;0.90;;
19907;SDS011;10116;53.112;7.356;2023-03-05T08:16:35;1.40;;;0.80;;
19907;SDS011;10116;53.112;7.356;2023-03-05T08:19:02;6.47;;;1.30;;
19907;SDS011;10116;53.112;7.356;2023-03-05T08:21:29;2.87;;;0.70;;
19907;SDS011;10116;53.112;7.356;2023-03-05T08:23:59;1.27;;;0.90;;
19907;SDS011;10116;53.112;7.356;2023-03-05T08:26:28;1.90;;;1.13;;
19907;SDS011;10116;53.112;7.356;2023-03-05T08:28:55;2.30;;;0.80;;
19907;SDS011;10116;53.112;7.356;2023-03-05T08:31:22;4.20;;;1.30;;
19907;SDS011;10116;53.112;7.356;2023-03-05T08:33:50;1.50;;;1.10;;
19907;SDS011;10116;53.112;7.356;2023-03-05T08:36:17;1.37;;;1.00;;
19907;SDS011;10116;53.112;7.356;2023-03-05T08:38:43;4.13;;;1.30;;
19907;SDS011;10116;53.112;7.356;2023-03-05T08:41:10;3.97;;;1.20;;
19907;SDS011;10116;53.112;7.356;2023-03-05T08:43:37;1.43;;;1.07;;
19907;SDS011;10116;53.112;7.356;2023-03-05T08:46:03;1.70;;;1.10;;
19907;SDS011;10116;53.112;7.356;2023-03-05T08:48:29;1.10;;;1.00;;
19907;SDS011;10116;53.112;7.356;2023-03-05T08:50:55;1.40;;;1.30;;
19907;SDS011;10116;53.112;7.356;2023-03-05T08:53:22;4.00;;;1.27;;
19907;SDS011;10116;53.112;7.356;2023-03-05T08:55:54;3.43;;;1.00;;
19907;SDS011;10116;53.112;7.356;2023-03-05T08:58:20;2.10;;;1.10;;
19907;SDS011;10116;53.112;7.356;2023-03-05T09:00:46;1.60;;;0.80;;
19907;SDS011;10116;53.112;7.356;2023-03-05T09:03:11;2.87;;;1.00;;
19907;SDS011;10116;53.112;7.356;2023-03-05T09:05:37;3.60;;;0.80;;
19907;SDS011;10116;53.112;7.356;2023-03-05T09:08:02;2.00;;;1.00;;
19907;SDS011;10116;53.112;7.356;2023-03-05T09:10:28;2.93;;;1.20;;
19907;SDS011;10116;53.112;7.356;2023-03-05T09:12:54;2.13;;;0.80;;
19907;SDS011;10116;53.112;7.356;2023-03-05T09:15:19;1.33;;;1.00;;
19907;SDS011;10116;53.112;7.356;2023-03-05T09:17:45;1.13;;;0.87;;
19907;SDS011;10116;53.112;7.356;2023-03-05T09:20:11;1.73;;;0.80;;
19907;SDS011;10116;53.112;7.356;2023-03-05T09:22:37;1.40;;;0.77;;
19907;SDS011;10116;53.112;7.356;2023-03-05T09:25:04;1.87;;;1.00;;
19907;SDS011;10116;53.112;7.356;2023-03-05T09:27:34;3.90;;;1.10;;
19907;SDS011;10116;53.112;7.356;2023-03-05T09:30:00;1.63;;;0.80;;
19907;SDS011;10116;53.112;7.356;2023-03-05T09:32:25;1.47;;;1.30;;
19907;SDS011;10116;53.112;7.356;2023-03-05T09:34:51;0.90;;;0.70;;
19907;SDS011;10116;53.112;7.356;2023-03-05T09:37:16;1.33;;;0.80;;
19907;SDS011;10116;53.112;7.356;2023-03-05T09:39:42;1.73;;;0.83;;
19907;SDS011;10116;53.112;7.356;2023-03-05T09:44:57;2.17;;;0.87;;
19907;SDS011;10116;53.112;7.356;2023-03-05T09:52:45;1.53;;;0.90;;
19907;SDS011;10116;53.112;7.356;2023-03-05T09:55:19;2.97;;;1.17;;
19907;SDS011;10116;53.112;7.356;2023-03-05T09:57:51;4.00;;;1.30;;
19907;SDS011;10116;53.112;7.356;2023-03-05T10:01:04;3.43;;;0.90;;
19907;SDS011;10116;53.112;7.356;2023-03-05T10:08:23;0.90;;;0.90;;
19907;SDS011;10116;53.112;7.356;2023-03-05T10:10:55;3.60;;;0.90;;
19907;SDS011;10116;53.112;7.356;2023-03-05T10:13:31;1.97;;;0.90;;
19907;SDS011;10116;53.112;7.356;2023-03-05T10:18:40;3.77;;;1.13;;
19907;SDS011;10116;53.112;7.356;2023-03-05T10:21:16;3.30;;;1.40;;
19907;SDS011;10116;53.112;7.356;2023-03-05T10:32:39;0.70;;;0.70;;
19907;SDS011;10116;53.112;7.356;2023-03-05T10:38:24;1.43;;;0.90;;
19907;SDS011;10116;53.112;7.356;2023-03-05T10:40:56;1.43;;;0.70;;
19907;SDS011;10116;53.112;7.356;2023-03-05T10:43:38;1.20;;;0.80;;
19907;SDS011;10116;53.112;7.356;2023-03-05T10:46:15;0.90;;;0.60;;
19907;SDS011;10116;53.112;7.356;2023-03-05T10:56:36;1.13;;;0.60;;
19907;SDS011;10116;53.112;7.356;2023-03-05T10:59:02;1.93;;;0.60;;
19907;SDS011;10116;53.112;7.356;2023-03-05T11:01:28;1.93;;;0.60;;
19907;SDS011;10116;53.112;7.356;2023-03-05T11:14:35;1.43;;;0.50;;
19907;SDS011;10116;53.112;7.356;2023-03-05T11:17:21;1.43;;;0.70;;
19907;SDS011;10116;53.112;7.356;2023-03-05T11:19:53;2.70;;;0.87;;
19907;SDS011;10116;53.112;7.356;2023-03-05T11:22:20;0.87;;;0.70;;
19907;SDS011;10116;53.112;7.356;2023-03-05T11:30:31;16.00;;;9.50;;
19907;SDS011;10116;53.112;7.356;2023-03-05T11:33:12;22.10;;;13.00;;
19907;SDS011;10116;53.112;7.356;2023-03-05T11:35:44;21.80;;;12.40;;
19907;SDS011;10116;53.112;7.356;2023-03-05T11:38:17;23.57;;;13.50;;
19907;SDS011;10116;53.112;7.356;2023-03-05T11:40:52;21.53;;;13.73;;
19907;SDS011;10116;53.112;7.356;2023-03-05T11:43:21;23.10;;;12.20;;
19907;SDS011;10116;53.112;7.356;2023-03-05T11:45:49;22.67;;;12.90;;
19907;SDS011;10116;53.112;7.356;2023-03-05T11:48:35;18.83;;;11.40;;
19907;SDS011;10116;53.112;7.356;2023-03-05T11:54:08;20.33;;;10.67;;
19907;SDS011;10116;53.112;7.356;2023-03-05T11:56:44;18.83;;;11.30;;
19907;SDS011;10116;53.112;7.356;2023-03-05T12:01:52;17.63;;;10.60;;
19907;SDS011;10116;53.112;7.356;2023-03-05T12:04:19;19.20;;;10.13;;
19907;SDS011;10116;53.112;7.356;2023-03-05T12:06:48;13.67;;;9.27;;
19907;SDS011;10116;53.112;7.356;2023-03-05T12:20:16;11.83;;;7.20;;
19907;SDS011;10116;53.112;7.356;2023-03-05T12:22:50;13.13;;;7.30;;
19907;SDS011;10116;53.112;7.356;2023-03-05T12:25:43;12.67;;;7.17;;
19907;SDS011;10116;53.112;7.356;2023-03-05T12:31:04;9.00;;;6.00;;
19907;SDS011;10116;53.112;7.356;2023-03-05T12:33:37;12.50;;;7.43;;
19907;SDS011;10116;53.112;7.356;2023-03-05T12:38:41;7.90;;;5.20;;
19907;SDS011;10116;53.112;7.356;2023-03-05T12:46:29;7.87;;;5.83;;
19907;SDS011;10116;53.112;7.356;2023-03-05T12:49:00;8.77;;;5.23;;
19907;SDS011;10116;53.112;7.356;2023-03-05T12:51:47;9.23;;;5.40;;
19907;SDS011;10116;53.112;7.356;2023-03-05T12:54:26;7.90;;;4.10;;
19907;SDS011;10116;53.112;7.356;2023-03-05T12:57:05;6.70;;;4.93;;
19907;SDS011;10116;53.112;7.356;2023-03-05T13:02:13;7.03;;;4.50;;
19907;SDS011;10116;53.112;7.356;2023-03-05T13:04:47;5.90;;;4.07;;
19907;SDS011;10116;53.112;7.356;2023-03-05T13:07:16;9.77;;;4.03;;
19907;SDS011;10116;53.112;7.356;2023-03-05T13:09:52;6.40;;;3.93;;
19907;SDS011;10116;53.112;7.356;2023-03-05T13:12:19;5.60;;;3.50;;
19907;SDS011;10116;53.112;7.356;2023-03-05T13:14:46;3.93;;;2.90;;
19907;SDS011;10116;53.112;7.356;2023-03-05T13:25:55;5.70;;;2.77;;
19907;SDS011;10116;53.112;7.356;2023-03-05T13:28:33;2.23;;;2.00;;
19907;SDS011;10116;53.112;7.356;2023-03-05T13:31:02;3.70;;;2.30;;
19907;SDS011;10116;53.112;7.356;2023-03-05T13:33:36;2.17;;;1.97;;
19907;SDS011;10116;53.112;7.356;2023-03-05T13:36:02;2.33;;;2.13;;
19907;SDS011;10116;53.112;7.356;2023-03-05T13:38:37;3.87;;;2.53;;
19907;SDS011;10116;53.112;7.356;2023-03-05T13:41:17;3.70;;;1.93;;
19907;SDS011;10116;53.112;7.356;2023-03-05T13:43:56;4.00;;;2.00;;
19907;SDS011;10116;53.112;7.356;2023-03-05T13:49:15;2.03;;;1.93;;
19907;SDS011;10116;53.112;7.356;2023-03-05T13:51:43;1.67;;;1.57;;
19907;SDS011;10116;53.112;7.356;2023-03-05T13:54:21;2.20;;;1.30;;
19907;SDS011;10116;53.112;7.356;2023-03-05T13:56:53;3.27;;;1.70;;
19907;SDS011;10116;53.112;7.356;2023-03-05T13:59:29;1.50;;;1.30;;
19907;SDS011;10116;53.112;7.356;2023-03-05T14:01:58;2.50;;;1.90;;
19907;SDS011;10116;53.112;7.356;2023-03-05T14:04:33;2.40;;;1.47;;
19907;SDS011;10116;53.112;7.356;2023-03-05T14:07:05;8.67;;;1.47;;
19907;SDS011;10116;53.112;7.356;2023-03-05T14:09:46;3.57;;;1.50;;
19907;SDS011;10116;53.112;7.356;2023-03-05T14:14:48;2.47;;;0.97;;
19907;SDS011;10116;53.112;7.356;2023-03-05T14:19:51;7.67;;;1.17;;
19907;SDS011;10116;53.112;7.356;2023-03-05T14:22:33;4.60;;;0.93;;
19907;SDS011;10116;53.112;7.356;2023-03-05T14:25:00;0.93;;;0.83;;
19907;SDS011;10116;53.112;7.356;2023-03-05T14:27:27;3.93;;;1.10;;
19907;SDS011;10116;53.112;7.356;2023-03-05T14:29:57;1.30;;;1.00;;
19907;SDS011;10116;53.112;7.356;2023-03-05T14:32:32;1.20;;;0.90;;
19907;SDS011;10116;53.112;7.356;2023-03-05T14:35:00;1.30;;;1.20;;
19907;SDS011;10116;53.112;7.356;2023-03-05T14:42:57;1.87;;;1.00;;
19907;SDS011;10116;53.112;7.356;2023-03-05T14:45:33;1.17;;;0.77;;
19907;SDS011;10116;53.112;7.356;2023-03-05T14:48:03;1.57;;;1.00;;
19907;SDS011;10116;53.112;7.356;2023-03-05T14:53:16;1.77;;;1.00;;
19907;SDS011;10116;53.112;7.356;2023-03-05T14:55:47;1.57;;;0.80;;
19907;SDS011;10116;53.112;7.356;2023-03-05T14:58:15;3.50;;;0.97;;
19907;SDS011;10116;53.112;7.356;2023-03-05T15:00:45;0.70;;;0.70;;
19907;SDS011;10116;53.112;7.356;2023-03-05T15:03:12;0.90;;;0.70;;
19907;SDS011;10116;53.112;7.356;2023-03-05T15:05:39;0.80;;;0.70;;
19907;SDS011;10116;53.112;7.356;2023-03-05T15:08:06;1.90;;;0.80;;
19907;SDS011;10116;53.112;7.356;2023-03-05T15:10:49;1.10;;;0.70;;
19907;SDS011;10116;53.112;7.356;2023-03-05T15:13:15;2.00;;;1.00;;
19907;SDS011;10116;53.112;7.356;2023-03-05T15:15:41;2.33;;;0.90;;
19907;SDS011;10116;53.112;7.356;2023-03-05T15:18:14;1.40;;;0.73;;
19907;SDS011;10116;53.112;7.356;2023-03-05T15:20:41;1.50;;;0.80;;
19907;SDS011;10116;53.112;7.356;2023-03-05T15:23:08;1.23;;;1.10;;
19907;SDS011;10116;53.112;7.356;2023-03-05T15:25:34;1.53;;;0.90;;
19907;SDS011;10116;53.112;7.356;2023-03-05T15:27:59;0.90;;;0.60;;
19907;SDS011;10116;53.112;7.356;2023-03-05T15:30:30;1.57;;;1.20;;
19907;SDS011;10116;53.112;7.356;2023-03-05T15:33:01;1.47;;;0.77;;
19907;SDS011;10116;53.112;7.356;2023-03-05T15:35:29;1.23;;;1.07;;
19907;SDS011;10116;53.112;7.356;2023-03-05T15:37:55;1.83;;;0.70;;
19907;SDS011;10116;53.112;7.356;2023-03-05T15:40:22;1.93;;;0.93;;
19907;SDS011;10116;53.112;7.356;2023-03-05T15:42:48;0.90;;;0.80;;
19907;SDS011;10116;53.112;7.356;2023-03-05T15:45:13;2.00;;;0.67;;
19907;SDS011;10116;53.112;7.356;2023-03-05T15:47:39;2.70;;;1.00;;
19907;SDS011;10116;53.112;7.356;2023-03-05T15:50:06;1.20;;;0.90;;
19907;SDS011;10116;53.112;7.356;2023-03-05T15:52:32;1.37;;;1.03;;
19907;SDS011;10116;53.112;7.356;2023-03-05T15:55:01;1.07;;;0.67;;
19907;SDS011;10116;53.112;7.356;2023-03-05T15:57:26;1.07;;;0.67;;
19907;SDS011;10116;53.112;7.356;2023-03-05T15:59:53;2.50;;;0.90;;
19907;SDS011;10116;53.112;7.356;2023-03-05T16:02:19;0.80;;;0.80;;
19907;SDS011;10116;53.112;7.356;2023-03-05T16:04:45;1.23;;;0.70;;
19907;SDS011;10116;53.112;7.356;2023-03-05T16:07:10;2.00;;;0.90;;
19907;SDS011;10116;53.112;7.356;2023-03-05T16:09:40;1.47;;;0.57;;
19907;SDS011;10116;53.112;7.356;2023-03-05T16:12:11;2.20;;;0.80;;
19907;SDS011;10116;53.112;7.356;2023-03-05T16:14:42;1.37;;;0.57;;
19907;SDS011;10116;53.112;7.356;2023-03-05T16:17:08;0.73;;;0.70;;
19907;SDS011;10116;53.112;7.356;2023-03-05T16:19:34;4.10;;;0.80;;
19907;SDS011;10116;53.112;7.356;2023-03-05T16:22:03;0.90;;;0.90;;
19907;SDS011;10116;53.112;7.356;2023-03-05T16:24:29;1.53;;;0.73;;
19907;SDS011;10116;53.112;7.356;2023-03-05T16:26:57;3.07;;;0.90;;
19907;SDS011;10116;53.112;7.356;2023-03-05T16:29:23;0.60;;;0.60;;
19907;SDS011;10116;53.112;7.356;2023-03-05T16:31:48;0.97;;;0.67;;
19907;SDS011;10116;53.112;7.356;2023-03-05T16:34:14;2.47;;;0.83;;
19907;SDS011;10116;53.112;7.356;2023-03-05T16:36:43;3.27;;;0.90;;
19907;SDS011;10116;53.112;7.356;2023-03-05T16:39:11;1.40;;;1.30;;
19907;SDS011;10116;53.112;7.356;2023-03-05T16:41:37;6.80;;;2.77;;